Terminal Aerodrome Forecast
Issued by NWS

Home | Current Version | Previous Version | Text Only | Print | Product List | Glossary On
Versions: 1 2 3 4 5 6 7 8 9 10 11 12 13 14 15
000
FTUS45 KPSR 262300
TAFBLH
TAF
KBLH 262325Z 2700/2724 21005KT P6SM FEW250
     FM271000 29005KT P6SM FEW250
     FM272100 19007KT P6SM SCT250=

USA.gov is the U.S. government's official web portal to all federal, state and local government web resources and services.